Etusivu
METAR-TAF:

METAR-TAF

Lentoasemat :

Ørland, Norja

Leveyspiiri: 63-42N, Pituuspiiri: 009-36E, korkeus merenpinnasta: 0 m

Tämänhetkinen sää

Tämä raportti tehtiin 18 minuuttia sitten, kello 12.20 UTC
Tuuli 11 kn idästä
Lämpötila 9°C
Kosteus 71%
Ilmanpaine 1018 hPa
Näkyvyys 10 km tai enemmän
Muutamia pilviä 1800 ft:n korkeudessa

METAR: ENOL 191220Z 10011KT 9999 FEW018 09/04 Q1018 NOSIG

Aika: 14:38 (12:38 UTC)

Sääennuste

Ennuste voimassa 19. päivästä klo 12 UTC - 20. päivään klo 12 UTC
Tuuli 12 kn idästä/kaakosta
Näkyvyys 10 km tai enemmän
Muutamia pilviä 1200 ft:n korkeudessa
Ajoittain
20. päivästä klo 09 UTC - 20. päivään klo 12 UTC
Tuuli 20 kn idästä/kaakosta puuskistuen 30 kn:hen

TAF: ENOL 1912/2012 12012KT 9999 FEW012 TEMPO 2009/2012 12020G30KT

Säähavainnot ja -ennusteet yli 4000 lentoasemalta (METAR- ja TAF-raportit).

Käytössä olevat sääasemat on merkitty karttaan keltaisilla ja punaisilla pisteillä.

Aseta hiiri pisteen päälle nähdäksesi sääaseman nimen.

Klikkaa sitten nähdäksesi säähavainnot ja -ennusteet.

Kartan vaihtaminen: klikkaa mustalla rastilla varustettuja vihreitä pisteitä, niin voit zoomata sisään; viivalla varustettua vihreää pistettä, niin voit zoomata ulos tai vihreitä nuolia, niin pääset viereisille kartoille.


METAR-TAF: